메인 페이지
METAR-TAF:

METAR-TAF

공항 :

Punta Arenas, 칠레

위도: 53-00S, 경도: 070-51W, 고도: 37m

현재 날씨관측

예보는 29분 전, 15:00시(UTC)에 발표되었습니다.
서북서7kt
온도 -3°C
습도 93%
기압 1022 hPa
시정 10km 이상
고도 2900ft 상공 구름 많음

METAR: SCCI 201500Z 29007KT 9999 BKN029 M03/M04 Q1022 NOSIG

시각: 11:29 (15:29 UTC)

예보

예보는 5 시간 17분 전, 10:12시(UTC)에 발표되었습니다.
예보 대상 시간: 20일 12시부터 21일 12시까지 (UTC)
6kt
시정: 8000m
고도 2000ft 상공 구름 조금
고도 3200ft 상공 구름 보통
확률 30% :
일시적
20일 12시부터 20일 14시까지 (UTC)
시정: 5000m
고도 800ft 상공 구름 보통
고도 1500ft 상공 구름 많음
박무, 약한눈
전환 중
20일 12시부터 20일 14시까지 (UTC)
북서5kt
전환 중
20일 23시부터 21일 01시까지 (UTC)
고도 1400ft 상공 구름 조금
고도 3000ft 상공 구름 보통
일시적
21일 09시부터 21일 12시까지 (UTC)
여러 방향의 바람 2kt

TAF: SCCI 201012Z 2012/2112 26006KT 8000 FEW020 SCT032 TNM09/2012Z TX00/2018Z PROB30 TEMPO 2012/2014 5000 BR -SN SCT008 BKN015 BECMG 2012/2014 32005KT BECMG 2023/2101 FEW014 SCT030 TEMPO 2109/2112 VRB02KT

4,000개 이상의 공항 관측 자료 및 예보 (METAR 및 TAF 보고).

지도상에서 검색 가능한 기상관측소가 노란 점과 빨간 점으로 표시되어 있습니다.

기상관측소 명을 보려면 표시 위로 마우스를 이동하세요.

날씨 관측과 예보를 보려면 클릭하세요.

지도 변경 : 확대하려면 엑스 표시가 있는 녹색 버튼, 축소하려면 빼기 표시가 있는 녹색 버튼, 다음 페이지의 지도를 보려면 녹색 화살표를 클릭하세요.


METAR-TAF: